Retsof, New York
Current Conditions -  °F | °C
As of 2:54 AM on Friday 19 Dec 2014 (Local Time) from KDSV Reporting Station
Overcast Overcast  
Wind Chill: 17°   Ceiling: 1300
Heat Index: 28°   Visibility: 7mi
Dew Point: 25°   Wind: 15mph
Humidity: 88%   Direction: 330°NNW
Pressure: 30.08"   Gusts: NA
Location:  42.84°N, 77.88°W
Report Text: KDSV 190754Z AUTO 33013KT 7SM OVC013 M02/M04 A3008 RMK AO2 SLP201 I1000 T10221039
Loading
Personal Weather Stations






























Interactive Weather Map New forecast layout! Learn more

10-Day Weather Forecast

Advertisements
Track Severe Weather on mobile